sensor_id;sensor_type;location;lat;lon;timestamp;temperature;humidity
3986;DHT22;2007;48.750;9.278;2022-09-03T00:02:30;22.90;52.80
3986;DHT22;2007;48.750;9.278;2022-09-03T00:05:05;22.90;52.80
3986;DHT22;2007;48.750;9.278;2022-09-03T00:07:39;22.90;52.80
3986;DHT22;2007;48.750;9.278;2022-09-03T00:10:12;22.90;52.80
3986;DHT22;2007;48.750;9.278;2022-09-03T00:12:43;22.90;52.80
3986;DHT22;2007;48.750;9.278;2022-09-03T00:15:17;22.90;52.80
3986;DHT22;2007;48.750;9.278;2022-09-03T00:17:48;22.90;52.80
3986;DHT22;2007;48.750;9.278;2022-09-03T00:20:22;22.90;52.80
3986;DHT22;2007;48.750;9.278;2022-09-03T00:22:53;22.90;52.80
3986;DHT22;2007;48.750;9.278;2022-09-03T00:25:27;22.90;52.80
3986;DHT22;2007;48.750;9.278;2022-09-03T00:27:56;22.90;52.80
3986;DHT22;2007;48.750;9.278;2022-09-03T00:30:28;22.90;52.80
3986;DHT22;2007;48.750;9.278;2022-09-03T00:32:58;22.90;52.80
3986;DHT22;2007;48.750;9.278;2022-09-03T00:35:33;22.90;52.80
3986;DHT22;2007;48.750;9.278;2022-09-03T00:38:02;22.90;52.80
3986;DHT22;2007;48.750;9.278;2022-09-03T00:40:51;22.90;52.80
3986;DHT22;2007;48.750;9.278;2022-09-03T00:43:30;22.90;52.80
3986;DHT22;2007;48.750;9.278;2022-09-03T00:46:07;22.90;52.70
3986;DHT22;2007;48.750;9.278;2022-09-03T00:48:58;22.90;52.70
3986;DHT22;2007;48.750;9.278;2022-09-03T00:51:34;22.90;52.80
3986;DHT22;2007;48.750;9.278;2022-09-03T00:54:13;22.90;52.70
3986;DHT22;2007;48.750;9.278;2022-09-03T00:56:48;22.90;52.70
3986;DHT22;2007;48.750;9.278;2022-09-03T00:59:30;22.90;52.70
3986;DHT22;2007;48.750;9.278;2022-09-03T01:02:14;22.90;52.80
3986;DHT22;2007;48.750;9.278;2022-09-03T01:04:52;22.90;52.70
3986;DHT22;2007;48.750;9.278;2022-09-03T01:07:32;22.90;52.70
3986;DHT22;2007;48.750;9.278;2022-09-03T01:10:11;22.90;52.80
3986;DHT22;2007;48.750;9.278;2022-09-03T01:12:48;22.90;52.70
3986;DHT22;2007;48.750;9.278;2022-09-03T01:15:25;22.90;52.70
3986;DHT22;2007;48.750;9.278;2022-09-03T01:18:05;22.90;52.70
3986;DHT22;2007;48.750;9.278;2022-09-03T01:20:58;22.90;52.80
3986;DHT22;2007;48.750;9.278;2022-09-03T01:23:47;22.90;52.70
3986;DHT22;2007;48.750;9.278;2022-09-03T01:26:42;22.90;52.70
3986;DHT22;2007;48.750;9.278;2022-09-03T01:29:19;22.90;52.70
3986;DHT22;2007;48.750;9.278;2022-09-03T01:31:57;22.90;52.70
3986;DHT22;2007;48.750;9.278;2022-09-03T01:34:39;22.90;52.80
3986;DHT22;2007;48.750;9.278;2022-09-03T01:37:14;22.90;52.70
3986;DHT22;2007;48.750;9.278;2022-09-03T01:39:56;22.90;52.70
3986;DHT22;2007;48.750;9.278;2022-09-03T01:42:35;22.90;52.80
3986;DHT22;2007;48.750;9.278;2022-09-03T01:45:26;22.90;52.70
3986;DHT22;2007;48.750;9.278;2022-09-03T01:48:13;22.90;52.80
3986;DHT22;2007;48.750;9.278;2022-09-03T01:50:47;22.90;52.80
3986;DHT22;2007;48.750;9.278;2022-09-03T01:53:27;22.90;52.80
3986;DHT22;2007;48.750;9.278;2022-09-03T01:56:10;22.90;52.70
3986;DHT22;2007;48.750;9.278;2022-09-03T01:58:46;22.90;52.80
3986;DHT22;2007;48.750;9.278;2022-09-03T02:01:28;22.90;52.70
3986;DHT22;2007;48.750;9.278;2022-09-03T02:04:14;22.90;52.70
3986;DHT22;2007;48.750;9.278;2022-09-03T02:06:44;22.90;52.70
3986;DHT22;2007;48.750;9.278;2022-09-03T02:09:14;22.90;52.80
3986;DHT22;2007;48.750;9.278;2022-09-03T02:11:43;22.90;52.80
3986;DHT22;2007;48.750;9.278;2022-09-03T02:14:13;22.90;52.70
3986;DHT22;2007;48.750;9.278;2022-09-03T02:16:42;22.90;52.70
3986;DHT22;2007;48.750;9.278;2022-09-03T02:19:13;22.90;52.80
3986;DHT22;2007;48.750;9.278;2022-09-03T02:21:48;22.90;52.80
3986;DHT22;2007;48.750;9.278;2022-09-03T02:24:18;22.90;52.80
3986;DHT22;2007;48.750;9.278;2022-09-03T02:26:46;22.90;52.70
3986;DHT22;2007;48.750;9.278;2022-09-03T02:29:15;22.90;52.80
3986;DHT22;2007;48.750;9.278;2022-09-03T02:31:44;22.90;52.70
3986;DHT22;2007;48.750;9.278;2022-09-03T02:34:13;22.90;52.70
3986;DHT22;2007;48.750;9.278;2022-09-03T02:36:43;22.90;52.70
3986;DHT22;2007;48.750;9.278;2022-09-03T02:39:12;22.90;52.70
3986;DHT22;2007;48.750;9.278;2022-09-03T02:41:40;22.90;52.70
3986;DHT22;2007;48.750;9.278;2022-09-03T02:44:11;22.90;52.70
3986;DHT22;2007;48.750;9.278;2022-09-03T02:46:50;22.90;52.70
3986;DHT22;2007;48.750;9.278;2022-09-03T02:49:20;22.90;52.80
3986;DHT22;2007;48.750;9.278;2022-09-03T02:51:48;22.90;52.70
3986;DHT22;2007;48.750;9.278;2022-09-03T02:54:16;22.90;52.80
3986;DHT22;2007;48.750;9.278;2022-09-03T02:56:46;22.90;52.70
3986;DHT22;2007;48.750;9.278;2022-09-03T02:59:15;22.90;52.80
3986;DHT22;2007;48.750;9.278;2022-09-03T03:01:43;22.90;52.70
3986;DHT22;2007;48.750;9.278;2022-09-03T03:04:12;22.90;52.70
3986;DHT22;2007;48.750;9.278;2022-09-03T03:06:42;22.90;52.70
3986;DHT22;2007;48.750;9.278;2022-09-03T03:09:13;22.90;52.70
3986;DHT22;2007;48.750;9.278;2022-09-03T03:11:41;22.90;52.70
3986;DHT22;2007;48.750;9.278;2022-09-03T03:14:10;22.90;52.80
3986;DHT22;2007;48.750;9.278;2022-09-03T03:16:38;22.90;52.80
3986;DHT22;2007;48.750;9.278;2022-09-03T03:19:05;22.80;52.60
3986;DHT22;2007;48.750;9.278;2022-09-03T03:21:34;22.90;52.80
3986;DHT22;2007;48.750;9.278;2022-09-03T03:24:03;22.80;52.60
3986;DHT22;2007;48.750;9.278;2022-09-03T03:26:32;22.90;52.80
3986;DHT22;2007;48.750;9.278;2022-09-03T03:29:01;22.90;52.80
3986;DHT22;2007;48.750;9.278;2022-09-03T03:31:31;22.80;52.70
3986;DHT22;2007;48.750;9.278;2022-09-03T03:34:01;22.80;52.60
3986;DHT22;2007;48.750;9.278;2022-09-03T03:36:31;22.90;52.80
3986;DHT22;2007;48.750;9.278;2022-09-03T03:39:00;22.90;52.70
3986;DHT22;2007;48.750;9.278;2022-09-03T03:41:31;22.80;52.70
3986;DHT22;2007;48.750;9.278;2022-09-03T03:44:00;22.80;52.70
3986;DHT22;2007;48.750;9.278;2022-09-03T03:46:31;22.90;52.80
3986;DHT22;2007;48.750;9.278;2022-09-03T03:48:59;22.80;52.70
3986;DHT22;2007;48.750;9.278;2022-09-03T03:51:28;22.80;52.70
3986;DHT22;2007;48.750;9.278;2022-09-03T03:53:57;22.80;52.70
3986;DHT22;2007;48.750;9.278;2022-09-03T03:56:32;22.80;53.30
3986;DHT22;2007;48.750;9.278;2022-09-03T03:59:01;22.80;52.70
3986;DHT22;2007;48.750;9.278;2022-09-03T04:01:29;22.80;52.70
3986;DHT22;2007;48.750;9.278;2022-09-03T04:03:58;22.80;52.70
3986;DHT22;2007;48.750;9.278;2022-09-03T04:06:27;22.80;52.70
3986;DHT22;2007;48.750;9.278;2022-09-03T04:08:55;22.80;52.70
3986;DHT22;2007;48.750;9.278;2022-09-03T04:11:24;22.80;52.70
3986;DHT22;2007;48.750;9.278;2022-09-03T04:13:53;22.80;52.70
3986;DHT22;2007;48.750;9.278;2022-09-03T04:16:23;22.80;52.70
3986;DHT22;2007;48.750;9.278;2022-09-03T04:18:52;22.80;52.70
3986;DHT22;2007;48.750;9.278;2022-09-03T04:21:21;22.80;52.70
3986;DHT22;2007;48.750;9.278;2022-09-03T04:23:51;22.80;52.70
3986;DHT22;2007;48.750;9.278;2022-09-03T04:26:21;22.80;52.70
3986;DHT22;2007;48.750;9.278;2022-09-03T04:28:49;22.80;52.70
3986;DHT22;2007;48.750;9.278;2022-09-03T04:31:19;22.80;52.70
3986;DHT22;2007;48.750;9.278;2022-09-03T04:33:48;22.80;52.70
3986;DHT22;2007;48.750;9.278;2022-09-03T04:36:18;22.80;52.70
3986;DHT22;2007;48.750;9.278;2022-09-03T04:38:48;22.80;52.70
3986;DHT22;2007;48.750;9.278;2022-09-03T04:41:17;22.80;52.70
3986;DHT22;2007;48.750;9.278;2022-09-03T04:43:45;22.80;52.70
3986;DHT22;2007;48.750;9.278;2022-09-03T04:46:19;22.80;52.70
3986;DHT22;2007;48.750;9.278;2022-09-03T04:48:49;22.80;52.70
3986;DHT22;2007;48.750;9.278;2022-09-03T04:51:20;22.80;52.70
3986;DHT22;2007;48.750;9.278;2022-09-03T04:53:58;22.80;52.70
3986;DHT22;2007;48.750;9.278;2022-09-03T04:56:28;22.80;52.70
3986;DHT22;2007;48.750;9.278;2022-09-03T04:58:58;22.80;52.70
3986;DHT22;2007;48.750;9.278;2022-09-03T05:01:30;22.80;52.70
3986;DHT22;2007;48.750;9.278;2022-09-03T05:03:58;22.80;52.70
3986;DHT22;2007;48.750;9.278;2022-09-03T05:06:28;22.80;52.70
3986;DHT22;2007;48.750;9.278;2022-09-03T05:08:57;22.80;52.70
3986;DHT22;2007;48.750;9.278;2022-09-03T05:11:26;22.80;52.70
3986;DHT22;2007;48.750;9.278;2022-09-03T05:13:56;22.80;53.40
3986;DHT22;2007;48.750;9.278;2022-09-03T05:16:25;22.80;52.70
3986;DHT22;2007;48.750;9.278;2022-09-03T05:18:58;22.80;52.70
3986;DHT22;2007;48.750;9.278;2022-09-03T05:21:27;22.80;52.70
3986;DHT22;2007;48.750;9.278;2022-09-03T05:23:56;22.80;52.70
3986;DHT22;2007;48.750;9.278;2022-09-03T05:26:26;22.80;52.70
3986;DHT22;2007;48.750;9.278;2022-09-03T05:28:55;22.80;52.70
3986;DHT22;2007;48.750;9.278;2022-09-03T05:31:25;22.80;52.70
3986;DHT22;2007;48.750;9.278;2022-09-03T05:33:55;22.80;52.70
3986;DHT22;2007;48.750;9.278;2022-09-03T05:36:27;22.80;52.70
3986;DHT22;2007;48.750;9.278;2022-09-03T05:38:56;22.80;52.70
3986;DHT22;2007;48.750;9.278;2022-09-03T05:41:25;22.70;52.60
3986;DHT22;2007;48.750;9.278;2022-09-03T05:43:54;22.80;52.70
3986;DHT22;2007;48.750;9.278;2022-09-03T05:46:26;22.80;52.70
3986;DHT22;2007;48.750;9.278;2022-09-03T05:48:57;22.80;52.70
3986;DHT22;2007;48.750;9.278;2022-09-03T05:51:28;22.70;52.60
3986;DHT22;2007;48.750;9.278;2022-09-03T05:53:57;22.80;52.70
3986;DHT22;2007;48.750;9.278;2022-09-03T05:56:27;22.70;52.60
3986;DHT22;2007;48.750;9.278;2022-09-03T05:58:57;22.70;52.60
3986;DHT22;2007;48.750;9.278;2022-09-03T06:01:27;22.70;52.60
3986;DHT22;2007;48.750;9.278;2022-09-03T06:03:57;22.70;52.60
3986;DHT22;2007;48.750;9.278;2022-09-03T06:06:28;22.70;52.60
3986;DHT22;2007;48.750;9.278;2022-09-03T06:08:58;22.70;52.60
3986;DHT22;2007;48.750;9.278;2022-09-03T06:11:28;22.70;52.60
3986;DHT22;2007;48.750;9.278;2022-09-03T06:13:57;22.70;52.60
3986;DHT22;2007;48.750;9.278;2022-09-03T06:16:27;22.70;52.60
3986;DHT22;2007;48.750;9.278;2022-09-03T06:18:57;22.70;52.60
3986;DHT22;2007;48.750;9.278;2022-09-03T06:21:28;22.70;52.60
3986;DHT22;2007;48.750;9.278;2022-09-03T06:23:57;22.70;52.60
3986;DHT22;2007;48.750;9.278;2022-09-03T06:26:26;22.70;52.60
3986;DHT22;2007;48.750;9.278;2022-09-03T06:28:55;22.70;52.60
3986;DHT22;2007;48.750;9.278;2022-09-03T06:31:24;22.70;52.60
3986;DHT22;2007;48.750;9.278;2022-09-03T06:33:53;22.70;52.60
3986;DHT22;2007;48.750;9.278;2022-09-03T06:36:27;22.70;52.70
3986;DHT22;2007;48.750;9.278;2022-09-03T06:38:56;22.70;52.60
3986;DHT22;2007;48.750;9.278;2022-09-03T06:41:26;22.70;52.60
3986;DHT22;2007;48.750;9.278;2022-09-03T06:43:59;22.70;52.60
3986;DHT22;2007;48.750;9.278;2022-09-03T06:46:30;22.70;52.60
3986;DHT22;2007;48.750;9.278;2022-09-03T06:48:58;22.70;52.60
3986;DHT22;2007;48.750;9.278;2022-09-03T06:51:29;22.70;52.60
3986;DHT22;2007;48.750;9.278;2022-09-03T06:54:00;22.70;52.60
3986;DHT22;2007;48.750;9.278;2022-09-03T06:56:28;22.70;52.70
3986;DHT22;2007;48.750;9.278;2022-09-03T06:59:05;22.70;52.60
3986;DHT22;2007;48.750;9.278;2022-09-03T07:01:33;22.70;52.70
3986;DHT22;2007;48.750;9.278;2022-09-03T07:04:03;22.70;52.70
3986;DHT22;2007;48.750;9.278;2022-09-03T07:06:35;22.70;52.70
3986;DHT22;2007;48.750;9.278;2022-09-03T07:09:04;22.70;52.70
3986;DHT22;2007;48.750;9.278;2022-09-03T07:11:33;22.70;52.70
3986;DHT22;2007;48.750;9.278;2022-09-03T07:14:02;22.70;52.70
3986;DHT22;2007;48.750;9.278;2022-09-03T07:16:33;22.70;52.70
3986;DHT22;2007;48.750;9.278;2022-09-03T07:19:02;22.70;52.70
3986;DHT22;2007;48.750;9.278;2022-09-03T07:21:34;22.70;52.70
3986;DHT22;2007;48.750;9.278;2022-09-03T07:24:04;22.70;52.70
3986;DHT22;2007;48.750;9.278;2022-09-03T07:26:34;22.60;52.60
3986;DHT22;2007;48.750;9.278;2022-09-03T07:29:03;22.70;52.70
3986;DHT22;2007;48.750;9.278;2022-09-03T07:31:34;22.70;52.70
3986;DHT22;2007;48.750;9.278;2022-09-03T07:34:05;22.70;52.70
3986;DHT22;2007;48.750;9.278;2022-09-03T07:36:39;22.60;52.60
3986;DHT22;2007;48.750;9.278;2022-09-03T07:39:09;22.60;52.60
3986;DHT22;2007;48.750;9.278;2022-09-03T07:41:38;22.70;52.70
3986;DHT22;2007;48.750;9.278;2022-09-03T07:44:10;22.60;52.60
3986;DHT22;2007;48.750;9.278;2022-09-03T07:46:38;22.60;52.60
3986;DHT22;2007;48.750;9.278;2022-09-03T07:49:07;22.60;52.60
3986;DHT22;2007;48.750;9.278;2022-09-03T07:51:37;22.60;52.60
3986;DHT22;2007;48.750;9.278;2022-09-03T07:54:08;22.60;52.60
3986;DHT22;2007;48.750;9.278;2022-09-03T07:56:38;22.60;52.60
3986;DHT22;2007;48.750;9.278;2022-09-03T07:59:07;22.60;52.60
3986;DHT22;2007;48.750;9.278;2022-09-03T08:01:36;22.60;53.30
3986;DHT22;2007;48.750;9.278;2022-09-03T08:04:07;22.60;52.70
3986;DHT22;2007;48.750;9.278;2022-09-03T08:06:38;22.60;52.60
3986;DHT22;2007;48.750;9.278;2022-09-03T08:09:08;22.60;52.70
3986;DHT22;2007;48.750;9.278;2022-09-03T08:11:40;22.60;52.60
3986;DHT22;2007;48.750;9.278;2022-09-03T08:14:11;22.60;52.60
3986;DHT22;2007;48.750;9.278;2022-09-03T08:16:40;22.60;52.60
3986;DHT22;2007;48.750;9.278;2022-09-03T08:19:09;22.60;52.70
3986;DHT22;2007;48.750;9.278;2022-09-03T08:21:40;22.60;52.70
3986;DHT22;2007;48.750;9.278;2022-09-03T08:24:09;22.60;52.70
3986;DHT22;2007;48.750;9.278;2022-09-03T08:26:39;22.60;52.70
3986;DHT22;2007;48.750;9.278;2022-09-03T08:29:13;22.60;52.70
3986;DHT22;2007;48.750;9.278;2022-09-03T08:31:42;22.60;52.70
3986;DHT22;2007;48.750;9.278;2022-09-03T08:34:10;22.60;52.70
3986;DHT22;2007;48.750;9.278;2022-09-03T08:36:41;22.60;52.70
3986;DHT22;2007;48.750;9.278;2022-09-03T08:39:10;22.60;52.70
3986;DHT22;2007;48.750;9.278;2022-09-03T08:41:54;22.60;52.70
3986;DHT22;2007;48.750;9.278;2022-09-03T08:44:28;22.60;52.70
3986;DHT22;2007;48.750;9.278;2022-09-03T08:47:00;22.60;52.70
3986;DHT22;2007;48.750;9.278;2022-09-03T08:49:33;22.60;52.70
3986;DHT22;2007;48.750;9.278;2022-09-03T08:52:21;22.60;52.70
3986;DHT22;2007;48.750;9.278;2022-09-03T08:54:50;22.60;52.70
3986;DHT22;2007;48.750;9.278;2022-09-03T08:57:20;22.60;52.70
3986;DHT22;2007;48.750;9.278;2022-09-03T08:59:52;22.60;52.70
3986;DHT22;2007;48.750;9.278;2022-09-03T09:02:25;22.60;52.70
3986;DHT22;2007;48.750;9.278;2022-09-03T09:05:04;22.60;52.70
3986;DHT22;2007;48.750;9.278;2022-09-03T09:07:46;22.60;52.70
3986;DHT22;2007;48.750;9.278;2022-09-03T09:10:23;22.60;52.70
3986;DHT22;2007;48.750;9.278;2022-09-03T09:13:04;22.60;52.70
3986;DHT22;2007;48.750;9.278;2022-09-03T09:15:39;22.60;52.70
3986;DHT22;2007;48.750;9.278;2022-09-03T09:18:14;22.60;52.70
3986;DHT22;2007;48.750;9.278;2022-09-03T09:20:48;22.60;52.80
3986;DHT22;2007;48.750;9.278;2022-09-03T09:23:23;22.60;52.70
3986;DHT22;2007;48.750;9.278;2022-09-03T09:25:55;22.60;52.70
3986;DHT22;2007;48.750;9.278;2022-09-03T09:28:27;22.60;52.80
3986;DHT22;2007;48.750;9.278;2022-09-03T09:30:56;22.60;52.70
3986;DHT22;2007;48.750;9.278;2022-09-03T09:33:24;22.60;52.70
3986;DHT22;2007;48.750;9.278;2022-09-03T09:35:54;22.60;52.80
3986;DHT22;2007;48.750;9.278;2022-09-03T09:38:31;22.60;52.80
3986;DHT22;2007;48.750;9.278;2022-09-03T09:41:08;22.60;52.80
3986;DHT22;2007;48.750;9.278;2022-09-03T09:43:37;22.60;52.70
3986;DHT22;2007;48.750;9.278;2022-09-03T09:46:08;22.60;52.80
3986;DHT22;2007;48.750;9.278;2022-09-03T09:48:38;22.60;52.80
3986;DHT22;2007;48.750;9.278;2022-09-03T09:51:18;22.60;52.80
3986;DHT22;2007;48.750;9.278;2022-09-03T09:53:58;22.60;52.80
3986;DHT22;2007;48.750;9.278;2022-09-03T09:56:27;22.60;52.80
3986;DHT22;2007;48.750;9.278;2022-09-03T09:59:05;22.60;52.80
3986;DHT22;2007;48.750;9.278;2022-09-03T10:01:36;22.60;52.80
3986;DHT22;2007;48.750;9.278;2022-09-03T10:04:10;22.60;52.80
3986;DHT22;2007;48.750;9.278;2022-09-03T10:06:38;22.60;53.40
3986;DHT22;2007;48.750;9.278;2022-09-03T10:09:26;22.60;52.80
3986;DHT22;2007;48.750;9.278;2022-09-03T10:12:04;22.60;52.80
3986;DHT22;2007;48.750;9.278;2022-09-03T10:14:44;22.60;52.80
3986;DHT22;2007;48.750;9.278;2022-09-03T10:17:18;22.60;53.50
3986;DHT22;2007;48.750;9.278;2022-09-03T10:20:06;22.60;52.80
3986;DHT22;2007;48.750;9.278;2022-09-03T10:23:00;22.60;52.80
3986;DHT22;2007;48.750;9.278;2022-09-03T10:25:37;22.60;52.80
3986;DHT22;2007;48.750;9.278;2022-09-03T10:28:08;22.50;52.70
3986;DHT22;2007;48.750;9.278;2022-09-03T10:30:58;22.60;52.80
3986;DHT22;2007;48.750;9.278;2022-09-03T10:33:32;22.60;52.80
3986;DHT22;2007;48.750;9.278;2022-09-03T10:36:10;22.60;52.80
3986;DHT22;2007;48.750;9.278;2022-09-03T10:38:49;22.50;52.70
3986;DHT22;2007;48.750;9.278;2022-09-03T10:41:30;22.60;52.80
3986;DHT22;2007;48.750;9.278;2022-09-03T10:44:21;22.50;52.70
3986;DHT22;2007;48.750;9.278;2022-09-03T10:46:59;22.50;52.80
3986;DHT22;2007;48.750;9.278;2022-09-03T10:49:41;22.50;52.80
3986;DHT22;2007;48.750;9.278;2022-09-03T10:52:22;22.60;52.80
3986;DHT22;2007;48.750;9.278;2022-09-03T10:55:04;22.50;52.80
3986;DHT22;2007;48.750;9.278;2022-09-03T10:57:44;22.50;52.80
3986;DHT22;2007;48.750;9.278;2022-09-03T11:00:16;22.50;52.80
3986;DHT22;2007;48.750;9.278;2022-09-03T11:03:15;22.50;52.80
3986;DHT22;2007;48.750;9.278;2022-09-03T11:05:55;22.50;52.80
3986;DHT22;2007;48.750;9.278;2022-09-03T11:08:29;22.50;52.80
3986;DHT22;2007;48.750;9.278;2022-09-03T11:11:06;22.50;52.80
3986;DHT22;2007;48.750;9.278;2022-09-03T11:13:39;22.50;52.80
3986;DHT22;2007;48.750;9.278;2022-09-03T11:16:14;22.50;52.80
3986;DHT22;2007;48.750;9.278;2022-09-03T11:18:47;22.50;52.80
3986;DHT22;2007;48.750;9.278;2022-09-03T11:21:19;22.50;52.80
3986;DHT22;2007;48.750;9.278;2022-09-03T11:23:52;22.50;52.80
3986;DHT22;2007;48.750;9.278;2022-09-03T11:26:22;22.50;52.80
3986;DHT22;2007;48.750;9.278;2022-09-03T11:28:57;22.50;52.80
3986;DHT22;2007;48.750;9.278;2022-09-03T11:31:33;22.50;52.80
3986;DHT22;2007;48.750;9.278;2022-09-03T11:34:11;22.50;52.80
3986;DHT22;2007;48.750;9.278;2022-09-03T11:37:19;22.50;52.80
3986;DHT22;2007;48.750;9.278;2022-09-03T11:39:56;22.50;52.80
3986;DHT22;2007;48.750;9.278;2022-09-03T11:42:31;22.50;52.80
3986;DHT22;2007;48.750;9.278;2022-09-03T11:45:19;22.50;52.80
3986;DHT22;2007;48.750;9.278;2022-09-03T11:47:48;22.50;52.80
3986;DHT22;2007;48.750;9.278;2022-09-03T11:50:20;22.50;52.80
3986;DHT22;2007;48.750;9.278;2022-09-03T11:52:50;22.50;52.80
3986;DHT22;2007;48.750;9.278;2022-09-03T11:55:27;22.50;52.80
3986;DHT22;2007;48.750;9.278;2022-09-03T11:58:11;22.50;52.80
3986;DHT22;2007;48.750;9.278;2022-09-03T12:00:45;22.50;52.80
3986;DHT22;2007;48.750;9.278;2022-09-03T12:03:24;22.50;52.80
3986;DHT22;2007;48.750;9.278;2022-09-03T12:06:10;22.50;52.90
3986;DHT22;2007;48.750;9.278;2022-09-03T12:08:52;22.50;52.80
3986;DHT22;2007;48.750;9.278;2022-09-03T12:11:38;22.50;52.80
3986;DHT22;2007;48.750;9.278;2022-09-03T12:14:13;22.50;52.80
3986;DHT22;2007;48.750;9.278;2022-09-03T12:16:56;22.50;52.80
3986;DHT22;2007;48.750;9.278;2022-09-03T12:19:31;22.50;52.90
3986;DHT22;2007;48.750;9.278;2022-09-03T12:22:03;22.50;52.90
3986;DHT22;2007;48.750;9.278;2022-09-03T12:24:31;22.50;52.90
3986;DHT22;2007;48.750;9.278;2022-09-03T12:27:04;22.50;52.90
3986;DHT22;2007;48.750;9.278;2022-09-03T12:29:33;22.50;52.90
3986;DHT22;2007;48.750;9.278;2022-09-03T12:32:08;22.50;52.80
3986;DHT22;2007;48.750;9.278;2022-09-03T12:34:36;22.50;52.90
3986;DHT22;2007;48.750;9.278;2022-09-03T12:37:17;22.50;52.90
3986;DHT22;2007;48.750;9.278;2022-09-03T12:40:16;22.50;52.90
3986;DHT22;2007;48.750;9.278;2022-09-03T12:42:44;22.50;52.90
3986;DHT22;2007;48.750;9.278;2022-09-03T12:45:13;22.50;52.90
3986;DHT22;2007;48.750;9.278;2022-09-03T12:47:43;22.50;52.90
3986;DHT22;2007;48.750;9.278;2022-09-03T12:50:13;22.50;52.90
3986;DHT22;2007;48.750;9.278;2022-09-03T12:52:45;22.50;52.90
3986;DHT22;2007;48.750;9.278;2022-09-03T12:55:27;22.50;52.90
3986;DHT22;2007;48.750;9.278;2022-09-03T12:58:02;22.50;52.90
3986;DHT22;2007;48.750;9.278;2022-09-03T13:00:41;22.50;52.90
3986;DHT22;2007;48.750;9.278;2022-09-03T13:03:16;22.50;52.90
3986;DHT22;2007;48.750;9.278;2022-09-03T13:05:48;22.50;52.90
3986;DHT22;2007;48.750;9.278;2022-09-03T13:08:20;22.50;52.90
3986;DHT22;2007;48.750;9.278;2022-09-03T13:10:51;22.50;53.00
3986;DHT22;2007;48.750;9.278;2022-09-03T13:13:22;22.50;53.00
3986;DHT22;2007;48.750;9.278;2022-09-03T13:15:59;22.50;53.00
3986;DHT22;2007;48.750;9.278;2022-09-03T13:18:37;22.50;53.00
3986;DHT22;2007;48.750;9.278;2022-09-03T13:21:14;22.50;53.00
3986;DHT22;2007;48.750;9.278;2022-09-03T13:24:08;22.50;53.00
3986;DHT22;2007;48.750;9.278;2022-09-03T13:26:48;22.50;53.00
3986;DHT22;2007;48.750;9.278;2022-09-03T13:29:32;22.50;53.00
3986;DHT22;2007;48.750;9.278;2022-09-03T13:32:22;22.50;53.00
3986;DHT22;2007;48.750;9.278;2022-09-03T13:34:56;22.50;53.00
3986;DHT22;2007;48.750;9.278;2022-09-03T13:37:27;22.50;53.00
3986;DHT22;2007;48.750;9.278;2022-09-03T13:39:58;22.50;53.00
3986;DHT22;2007;48.750;9.278;2022-09-03T13:42:33;22.50;53.00
3986;DHT22;2007;48.750;9.278;2022-09-03T13:45:08;22.50;53.00
3986;DHT22;2007;48.750;9.278;2022-09-03T13:47:43;22.50;53.00
3986;DHT22;2007;48.750;9.278;2022-09-03T13:50:33;22.50;53.00
3986;DHT22;2007;48.750;9.278;2022-09-03T13:53:08;22.50;53.00
3986;DHT22;2007;48.750;9.278;2022-09-03T13:55:44;22.50;53.00
3986;DHT22;2007;48.750;9.278;2022-09-03T13:58:20;22.50;53.00
3986;DHT22;2007;48.750;9.278;2022-09-03T14:01:05;22.50;53.00
3986;DHT22;2007;48.750;9.278;2022-09-03T14:03:43;22.50;53.00
3986;DHT22;2007;48.750;9.278;2022-09-03T14:06:25;22.50;53.00
3986;DHT22;2007;48.750;9.278;2022-09-03T14:09:05;22.50;53.00
3986;DHT22;2007;48.750;9.278;2022-09-03T14:11:45;22.50;53.00
3986;DHT22;2007;48.750;9.278;2022-09-03T14:14:20;22.50;53.00
3986;DHT22;2007;48.750;9.278;2022-09-03T14:16:58;22.50;53.10
3986;DHT22;2007;48.750;9.278;2022-09-03T14:19:36;22.50;53.10
3986;DHT22;2007;48.750;9.278;2022-09-03T14:22:10;22.50;53.20
3986;DHT22;2007;48.750;9.278;2022-09-03T14:24:46;22.50;53.20
3986;DHT22;2007;48.750;9.278;2022-09-03T14:27:22;22.50;53.20
3986;DHT22;2007;48.750;9.278;2022-09-03T14:29:53;22.50;53.20
3986;DHT22;2007;48.750;9.278;2022-09-03T14:32:30;22.50;53.20
3986;DHT22;2007;48.750;9.278;2022-09-03T14:35:32;22.50;53.20
3986;DHT22;2007;48.750;9.278;2022-09-03T14:38:31;22.50;53.30
3986;DHT22;2007;48.750;9.278;2022-09-03T14:41:06;22.50;53.30
3986;DHT22;2007;48.750;9.278;2022-09-03T14:44:02;22.50;53.30
3986;DHT22;2007;48.750;9.278;2022-09-03T14:46:51;22.50;53.30
3986;DHT22;2007;48.750;9.278;2022-09-03T14:49:36;22.50;53.30
3986;DHT22;2007;48.750;9.278;2022-09-03T14:52:18;22.50;53.30
3986;DHT22;2007;48.750;9.278;2022-09-03T14:55:05;22.50;53.30
3986;DHT22;2007;48.750;9.278;2022-09-03T14:58:01;22.50;53.30
3986;DHT22;2007;48.750;9.278;2022-09-03T15:00:34;22.50;53.30
3986;DHT22;2007;48.750;9.278;2022-09-03T15:03:25;22.50;53.30
3986;DHT22;2007;48.750;9.278;2022-09-03T15:06:12;22.50;53.30
3986;DHT22;2007;48.750;9.278;2022-09-03T15:08:53;22.50;53.40
3986;DHT22;2007;48.750;9.278;2022-09-03T15:11:25;22.50;53.40
3986;DHT22;2007;48.750;9.278;2022-09-03T15:14:01;22.50;53.30
3986;DHT22;2007;48.750;9.278;2022-09-03T15:16:42;22.50;53.40
3986;DHT22;2007;48.750;9.278;2022-09-03T15:19:18;22.50;53.50
3986;DHT22;2007;48.750;9.278;2022-09-03T15:22:01;22.50;53.50
3986;DHT22;2007;48.750;9.278;2022-09-03T15:24:42;22.50;53.50
3986;DHT22;2007;48.750;9.278;2022-09-03T15:27:33;22.50;53.50
3986;DHT22;2007;48.750;9.278;2022-09-03T15:30:05;22.50;53.70
3986;DHT22;2007;48.750;9.278;2022-09-03T15:32:53;22.50;54.40
3986;DHT22;2007;48.750;9.278;2022-09-03T15:35:51;22.50;53.80
3986;DHT22;2007;48.750;9.278;2022-09-03T15:38:32;22.50;53.80
3986;DHT22;2007;48.750;9.278;2022-09-03T15:41:05;22.50;53.80
3986;DHT22;2007;48.750;9.278;2022-09-03T15:43:35;22.50;53.80
3986;DHT22;2007;48.750;9.278;2022-09-03T15:46:09;22.50;53.90
3986;DHT22;2007;48.750;9.278;2022-09-03T15:48:46;22.50;53.90
3986;DHT22;2007;48.750;9.278;2022-09-03T15:51:19;22.50;54.00
3986;DHT22;2007;48.750;9.278;2022-09-03T15:53:52;22.50;54.00
3986;DHT22;2007;48.750;9.278;2022-09-03T15:56:27;22.50;54.10
3986;DHT22;2007;48.750;9.278;2022-09-03T15:59:01;22.50;54.20
3986;DHT22;2007;48.750;9.278;2022-09-03T16:01:35;22.50;54.90
3986;DHT22;2007;48.750;9.278;2022-09-03T16:04:11;22.50;54.20
3986;DHT22;2007;48.750;9.278;2022-09-03T16:06:53;22.50;54.30
3986;DHT22;2007;48.750;9.278;2022-09-03T16:09:38;22.50;54.20
3986;DHT22;2007;48.750;9.278;2022-09-03T16:12:36;22.60;54.30
3986;DHT22;2007;48.750;9.278;2022-09-03T16:15:10;22.60;54.50
3986;DHT22;2007;48.750;9.278;2022-09-03T16:17:51;22.60;54.70
3986;DHT22;2007;48.750;9.278;2022-09-03T16:20:26;22.60;54.60
3986;DHT22;2007;48.750;9.278;2022-09-03T16:23:02;22.60;54.60
3986;DHT22;2007;48.750;9.278;2022-09-03T16:25:34;22.60;54.60
3986;DHT22;2007;48.750;9.278;2022-09-03T16:28:13;22.60;54.50
3986;DHT22;2007;48.750;9.278;2022-09-03T16:30:59;22.60;54.40
3986;DHT22;2007;48.750;9.278;2022-09-03T16:33:37;22.60;54.40
3986;DHT22;2007;48.750;9.278;2022-09-03T16:36:22;22.60;54.50
3986;DHT22;2007;48.750;9.278;2022-09-03T16:38:59;22.60;54.50
3986;DHT22;2007;48.750;9.278;2022-09-03T16:41:33;22.60;54.50
3986;DHT22;2007;48.750;9.278;2022-09-03T16:44:06;22.60;54.50
3986;DHT22;2007;48.750;9.278;2022-09-03T16:46:45;22.60;54.60
3986;DHT22;2007;48.750;9.278;2022-09-03T16:52:14;22.60;54.80
3986;DHT22;2007;48.750;9.278;2022-09-03T16:55:12;22.60;54.80